Latest Weather Observations for Coober Pedy Airport

IDS60801

Issued at 8:31 pm CDT Wednesday 18 January 2017 (issued every 30 minutes, with the page automatically refreshed every 10 minutes)

About weather observations | Map of weather stations | Latest weather observations for SA | Other Formats
Station Details ID: 016090 Name: COOBER PEDY AIRPORT Lat: -29.03 Lon: 134.72 Height: 225.0 m
Data from the previous 72 hours. | See also: Recent months at Coober Pedy Airport
Date/Time
CDT
Temp
°C
App
Temp
°C
Dew
Point
°C
Rel
Hum
%
Delta-T
°C
Wind Press
QNH
hPa
Press
MSL
hPa
Rain since
9am
mm
Dir  Spd
km/h
Gust
km/h
Spd
kts
Gust
kts
18/08:30pm 35.8 34.4 18.8 36 11.3 ESE 24 33 13 18 1005.3 1003.7 0.0
18/08:00pm 36.5 34.3 18.6 35 11.9 ENE 28 46 15 25 1005.1 1003.5 0.0
18/07:56pm 35.8 33.5 18.4 35 11.5 E 28 46 15 25 1005.4 1003.8 0.0
18/07:51pm 36.2 34.0 19.6 37 11.1 ESE 30 39 16 21 1005.5 1003.9 0.0
18/07:38pm 36.2 34.2 19.2 37 11.3 SE 28 50 15 27 1004.9 1003.3 0.0
18/07:30pm 36.9 35.9 18.0 33 12.5 ESE 20 28 11 15 1004.8 1003.2 0.0
18/07:11pm 38.0 33.7 17.9 30 13.2 E 37 56 20 30 1004.6 1003.0 0.0
18/07:07pm 37.6 34.0 18.6 33 12.6 E 35 56 19 30 1004.6 1003.0 0.0
18/07:00pm 39.4 35.2 16.3 25 15.0 ENE 33 54 18 29 1004.5 1002.9 0.0
18/06:58pm 39.3 35.7 16.2 25 14.9 NE 30 54 16 29 1004.5 1002.9 0.0
18/06:54pm 39.8 37.8 17.3 27 14.8 NE 24 54 13 29 1004.5 1002.9 0.0
18/06:30pm 41.1 40.3 17.1 24 15.8 N 17 24 9 13 1004.4 1002.8 0.0
18/06:00pm 41.2 39.3 16.6 24 16.1 NNE 22 32 12 17 1004.5 1002.9 0.0
18/05:30pm 41.4 40.1 16.7 23 16.2 NNE 19 28 10 15 1004.5 1002.9 0.0
18/05:00pm 41.0 39.3 15.7 22 16.3 NNE 19 26 10 14 1004.7 1003.1 0.0
18/04:30pm 40.1 37.8 15.7 24 15.8 NE 22 30 12 16 1005.3 1003.7 0.0
18/04:00pm 41.1 39.7 17.1 24 15.8 NE 20 41 11 22 1005.7 1004.1 0.0
18/03:30pm 41.6 40.6 17.6 25 15.9 N 19 30 10 16 1006.1 1004.5 0.0
18/03:00pm 40.2 39.4 17.0 25 15.2 NNE 17 28 9 15 1006.6 1005.0 0.0
18/02:30pm 40.7 40.3 18.0 26 15.1 NNE 17 32 9 17 1007.0 1005.5 0.0
18/02:00pm 39.5 38.9 17.6 27 14.4 NNE 17 28 9 15 1007.3 1005.8 0.0
18/01:30pm 38.9 38.9 18.2 30 13.8 NNE 15 22 8 12 1007.7 1006.2 0.0
18/01:00pm 39.2 41.5 19.5 32 13.3 NW 6 11 3 6 1008.1 1006.5 0.0
18/12:30pm 37.6 39.1 18.1 32 12.9 NE 7 17 4 9 1008.5 1006.9 0.0
18/12:00pm 37.3 38.2 18.3 32 12.6 NNE 11 20 6 11 1008.8 1007.2 0.0
18/11:30am 37.6 37.9 19.5 34 12.2 N 17 26 9 14 1009.1 1007.5 0.0
18/11:00am 36.4 36.2 19.4 37 11.4 NNW 19 24 10 13 1009.1 1007.5 0.0
18/10:30am 36.1 36.5 19.1 36 11.3 N 15 22 8 12 1009.1 1007.5 0.0
18/10:00am 35.2 35.1 18.7 37 10.9 N 17 24 9 13 1009.3 1007.7 0.0
18/09:30am 34.8 35.5 18.8 39 10.6 NE 13 17 7 9 1009.5 1007.9 0.0
18/09:00am 34.3 34.6 17.9 37 10.7 ENE 13 15 7 8 1009.2 1007.6 2.6
18/08:30am 32.8 32.6 16.6 38 10.3 E 13 17 7 9 1009.0 1007.4 2.6
18/08:00am 31.3 30.9 17.2 42 9.0 E 15 17 8 9 1008.8 1007.2 2.6
18/07:30am 30.0 29.8 17.5 47 8.0 ESE 15 17 8 9 1008.6 1007.0 2.6
18/07:00am 29.0 28.6 18.1 51 7.0 E 17 19 9 10 1008.3 1006.7 2.6
18/06:30am 29.2 29.0 17.7 50 7.4 ESE 15 19 8 10 1007.8 1006.3 2.6
18/06:00am 29.8 28.5 17.3 47 8.0 ESE 20 24 11 13 1007.5 1006.0 2.6
18/05:30am 29.8 28.8 17.6 48 7.8 SE 19 24 10 13 1007.1 1005.6 2.6
18/05:00am 29.9 29.6 18.3 49 7.5 SE 17 20 9 11 1006.7 1005.2 2.6
18/04:30am 30.1 29.8 19.2 52 7.2 SSE 19 22 10 12 1006.5 1004.9 2.6
18/04:00am 31.2 31.0 18.5 46 8.3 SSE 17 20 9 11 1006.4 1004.8 2.6
18/03:30am 31.3 31.4 19.9 50 7.6 SSE 19 22 10 12 1006.3 1004.7 2.6
18/03:00am 31.5 33.2 21.7 56 6.7 ENE 15 15 8 8 1006.1 1004.5 2.6
18/02:30am 31.3 33.5 22.6 60 6.0 NE 15 17 8 9 1006.2 1004.6 2.6
18/02:00am 31.2 33.6 23.0 61 5.7 NE 15 15 8 8 1006.3 1004.7 2.6
18/01:30am 31.6 34.2 22.6 59 6.2 NE 13 15 7 8 1006.3 1004.7 2.6
18/01:00am 31.7 34.2 22.4 58 6.4 NE 13 15 7 8 1006.5 1004.9 2.6
18/12:30am 31.4 36.1 24.0 65 5.2 NNW 6 7 3 4 1006.9 1005.4 2.6
18/12:00am 31.2 36.1 23.0 61 5.7 W 2 6 1 3 1007.0 1005.5 2.6
 
Date/Time
CDT
Temp
°C
App
Temp
°C
Dew
Point
°C
Rel
Hum
%
Delta-T
°C
Wind Press
QNH
hPa
Press
MSL
hPa
Rain since
9am
mm
Dir  Spd
km/h
Gust
km/h
Spd
kts
Gust
kts
17/11:30pm 31.1 34.5 22.7 61 5.8 W 9 13 5 7 1007.0 1005.5 2.6
17/11:00pm 33.5 35.0 21.3 48 8.3 S 15 33 8 18 1006.8 1005.3 2.6
17/10:30pm 30.1 29.2 21.5 60 5.8 W 28 33 15 18 1006.8 1005.3 2.4
17/10:17pm 32.1 29.1 19.0 45 8.6 N 33 50 18 27 1007.7 1006.2 1.8
17/10:14pm 30.7 27.5 20.3 53 6.9 N 37 50 20 27 1007.7 1006.2 1.6
17/10:13pm 31.2 26.8 18.5 46 8.3 NNE 39 50 21 27 1007.8 1006.3 1.4
17/10:03pm 32.1 28.1 19.4 47 8.4 N 39 54 21 29 1007.5 1006.0 0.0
17/10:00pm 32.5 28.1 19.4 46 8.7 N 41 56 22 30 1007.6 1006.1 0.0
17/09:44pm 34.1 29.2 19.0 41 10.0 N 43 69 23 37 1006.7 1005.2 0.0
17/09:30pm 34.7 31.4 18.3 38 10.8 N 33 61 18 33 1006.2 1004.6 0.0
17/09:27pm 36.3 34.1 17.0 32 12.5 NNE 24 50 13 27 1006.2 1004.6 0.0
17/09:00pm 37.3 35.6 16.3 29 13.6 NNE 20 28 11 15 1005.6 1004.0 0.0
17/08:30pm 37.2 34.2 16.7 29 13.3 NE 28 35 15 19 1005.4 1003.8 0.0
17/08:12pm 36.1 32.1 16.8 32 12.5 NE 33 48 18 26 1005.5 1003.9 0.0
17/08:00pm 37.2 33.0 17.2 30 13.0 ENE 35 44 19 24 1005.2 1003.6 0.0
17/07:30pm 38.9 32.7 15.9 25 14.8 E 43 56 23 30 1004.7 1003.1 0.0
17/07:21pm 39.5 36.5 15.8 24 15.3 ENE 26 44 14 24 1004.6 1003.0 0.0
17/07:00pm 40.6 38.2 12.5 19 17.4 ENE 17 22 9 12 1004.4 1002.8 0.0
17/06:30pm 40.8 37.4 12.6 19 17.5 NNE 22 33 12 18 1004.3 1002.7 0.0
17/06:00pm 41.7 39.1 10.8 16 18.8 NNE 15 20 8 11 1004.3 1002.7 0.0
17/05:30pm 42.6 40.0 9.5 14 19.8 NE 13 26 7 14 1004.5 1002.9 0.0
17/05:00pm 42.9 39.8 7.4 12 20.6 NW 13 20 7 11 1004.8 1003.2 0.0
17/04:30pm 42.2 39.5 5.6 11 20.7 SSE 9 17 5 9 1005.0 1003.4 0.0
17/04:00pm 42.8 39.9 4.7 10 21.3 ENE 9 15 5 8 1005.4 1003.8 0.0
17/03:30pm 42.2 37.7 4.3 10 21.1 N 17 35 9 19 1005.7 1004.1 0.0
17/03:00pm 42.7 38.0 3.1 9 21.7 NNE 17 32 9 17 1006.0 1004.4 0.0
17/02:30pm 42.1 37.3 2.7 9 21.4 N 17 32 9 17 1006.5 1004.9 0.0
17/02:00pm 41.2 38.4 2.0 9 20.9 SW 6 17 3 9 1006.8 1005.3 0.0
17/01:30pm 41.9 37.3 -0.9 7 22.0 ENE 13 28 7 15 1007.3 1005.8 0.0
17/01:00pm 40.8 35.0 -1.7 7 21.4 NE 19 26 10 14 1007.7 1006.2 0.0
17/12:30pm 39.8 33.6 -4.5 6 21.3 NE 19 26 10 14 1008.2 1006.6 0.0
17/12:00pm 39.9 33.2 -4.4 6 21.3 NE 22 32 12 17 1008.5 1006.9 0.0
17/11:30am 39.0 32.2 -5.1 6 20.9 NE 22 30 12 16 1008.7 1007.1 0.0
17/11:00am 38.3 30.7 -5.5 6 20.5 NE 26 32 14 17 1008.9 1007.3 0.0
17/10:30am 36.9 30.0 -2.7 8 19.2 ENE 24 32 13 17 1009.1 1007.5 0.0
17/10:00am 35.1 27.3 -4.1 8 18.3 NE 28 32 15 17 1009.2 1007.6 0.0
17/09:30am 33.9 26.1 -3.4 9 17.5 ENE 28 33 15 18 1009.2 1007.6 0.0
17/09:00am 32.4 26.2 -4.5 9 16.8 E 19 24 10 13 1009.0 1007.4 0.0
17/08:30am 30.7 24.0 -4.4 10 15.8 E 22 28 12 15 1008.9 1007.3 0.0
17/08:00am 29.4 23.1 -4.1 11 15.0 E 20 30 11 16 1008.6 1007.0 0.0
17/07:30am 26.8 21.5 -3.9 13 13.5 ESE 15 19 8 10 1008.3 1006.7 0.0
17/07:00am 26.4 20.4 -6.4 11 13.7 E 17 22 9 12 1007.9 1006.4 0.0
17/06:30am 24.5 18.6 -5.7 13 12.6 ESE 17 17 9 9 1007.5 1006.0 0.0
17/06:00am 25.2 19.2 -6.2 12 13.1 ESE 17 20 9 11 1007.2 1005.7 0.0
17/05:30am 26.0 20.3 -7.9 10 13.8 E 15 17 8 9 1007.1 1005.6 0.0
17/05:00am 25.8 20.4 -8.1 10 13.7 E 13 13 7 7 1007.0 1005.5 0.0
17/04:30am 26.5 19.9 -8.9 9 14.2 ENE 19 20 10 11 1007.1 1005.6 0.0
17/04:00am 25.8 20.8 -8.1 10 13.7 E 11 13 6 7 1007.1 1005.6 0.0
17/03:30am 26.5 20.7 -8.9 9 14.2 E 15 17 8 9 1007.3 1005.8 0.0
17/03:00am 25.5 19.8 -7.1 11 13.4 E 15 17 8 9 1007.4 1005.9 0.0
17/02:30am 26.3 20.8 -9.1 9 14.1 E 13 15 7 8 1007.6 1006.1 0.0
17/02:00am 26.4 20.2 -9.0 9 14.1 E 17 19 9 10 1007.7 1006.2 0.0
17/01:30am 26.8 21.0 -8.7 9 14.3 ESE 15 17 8 9 1007.8 1006.3 0.0
17/01:00am 27.1 20.9 -8.5 9 14.4 E 17 19 9 10 1008.2 1006.6 0.0
17/12:30am 28.8 22.2 -8.7 8 15.4 E 19 22 10 12 1008.4 1006.8 0.0
17/12:00am 29.5 23.0 -8.2 8 15.7 E 19 22 10 12 1008.5 1006.9 0.0
 
Date/Time
CDT
Temp
°C
App
Temp
°C
Dew
Point
°C
Rel
Hum
%
Delta-T
°C
Wind Press
QNH
hPa
Press
MSL
hPa
Rain since
9am
mm
Dir  Spd
km/h
Gust
km/h
Spd
kts
Gust
kts
16/11:30pm 28.3 22.7 -6.2 10 14.8 ESE 15 15 8 8 1008.5 1006.9 0.0
16/11:00pm 29.6 24.4 -6.6 9 15.5 ESE 13 17 7 9 1008.4 1006.8 0.0
16/10:30pm 30.2 24.6 -6.1 9 15.8 ESE 15 17 8 9 1008.3 1006.7 0.0
16/10:00pm 31.2 25.7 -5.4 9 16.2 E 15 17 8 9 1008.2 1006.6 0.0
16/09:30pm 32.8 26.9 -5.7 8 17.3 ESE 17 19 9 10 1007.8 1006.3 0.0
16/09:00pm 34.0 28.4 -6.6 7 18.1 E 15 17 8 9 1007.5 1006.0 0.0
16/08:30pm 36.2 30.2 -7.0 6 19.5 E 17 20 9 11 1007.3 1005.8 0.0
16/08:00pm 37.7 31.8 -6.0 6 20.2 E 17 22 9 12 1007.1 1005.6 0.0
16/07:30pm 38.4 31.9 -7.8 5 20.9 ENE 19 26 10 14 1007.2 1005.7 0.0
16/07:00pm 38.7 32.2 -7.6 5 21.0 ENE 19 26 10 14 1007.0 1005.5 0.0
16/06:30pm 38.9 33.2 -7.5 5 21.2 E 15 20 8 11 1006.9 1005.4 0.0
16/06:00pm 39.0 32.4 -7.4 5 21.2 ENE 20 30 11 16 1006.9 1005.4 0.0
16/05:30pm 38.9 32.8 -7.5 5 21.2 E 17 33 9 18 1007.2 1005.7 0.0
16/05:00pm 39.3 31.9 -7.2 5 21.3 E 24 35 13 19 1007.3 1005.8 0.0
16/04:30pm 39.0 33.9 -5.1 6 20.9 ENE 13 22 7 12 1007.6 1006.1 0.0
16/04:00pm 39.7 34.3 -4.6 6 21.2 NE 15 30 8 16 1008.1 1006.5 0.0
16/03:30pm 38.8 32.8 -3.2 7 20.4 ENE 19 35 10 19 1008.4 1006.8 0.0
16/03:00pm 37.9 31.0 -5.8 6 20.3 NE 22 32 12 17 1008.7 1007.1 0.0
16/02:30pm 37.8 31.5 -3.9 7 19.9 ENE 20 33 11 18 1009.1 1007.5 0.0
16/02:00pm 37.1 31.7 -4.4 7 19.6 NNE 15 32 8 17 1009.7 1008.1 0.0
16/01:30pm 36.9 30.8 -2.7 8 19.2 NNE 20 32 11 17 1010.1 1008.5 0.0
16/01:00pm 36.2 30.2 -1.7 9 18.5 NE 20 32 11 17 1010.4 1008.8 0.0
16/12:30pm 35.4 29.7 0.5 11 17.6 NNE 20 32 11 17 1010.9 1009.4 0.0
16/12:00pm 34.2 29.1 0.8 12 16.8 ENE 17 26 9 14 1011.2 1009.7 0.0
16/11:30am 33.9 27.8 0.5 12 16.7 NE 22 35 12 19 1011.4 1009.9 0.0
16/11:00am 32.9 26.8 2.9 15 15.5 NE 24 35 13 19 1011.9 1010.4 0.0
16/10:30am 31.5 25.3 4.3 18 14.3 ENE 26 32 14 17 1012.2 1010.7 0.0
16/10:00am 29.9 23.6 3.8 19 13.4 ENE 26 37 14 20 1012.4 1010.9 0.0
16/09:30am 29.2 23.4 4.6 21 12.8 ENE 24 30 13 16 1012.4 1010.9 0.0
16/09:00am 28.0 23.2 5.6 24 11.8 ENE 20 28 11 15 1012.5 1011.0 0.0
16/08:30am 26.2 22.9 6.3 28 10.5 E 13 15 7 8 1012.5 1011.0 0.0
16/08:00am 23.5 21.4 6.7 34 8.8 E 7 9 4 5 1012.4 1010.9 0.0
16/07:30am 21.6 18.7 6.7 38 7.7 ESE 11 15 6 8 1012.3 1010.8 0.0
16/07:00am 20.7 17.4 6.6 40 7.2 ESE 13 15 7 8 1012.0 1010.5 0.0
16/06:30am 20.7 17.1 6.6 40 7.2 ESE 15 17 8 9 1011.7 1010.2 0.0
16/06:00am 21.2 17.1 6.3 38 7.6 ESE 17 19 9 10 1011.7 1010.2 0.0
16/05:30am 21.8 17.7 6.1 36 8.0 ESE 17 19 9 10 1011.5 1010.0 0.0
16/05:00am 22.3 18.5 5.7 34 8.4 ESE 15 19 8 10 1011.4 1009.9 0.0
16/04:30am 22.9 18.7 5.8 33 8.7 ESE 17 20 9 11 1011.5 1010.0 0.0
16/04:00am 24.1 19.3 5.5 30 9.5 E 20 24 11 13 1011.4 1009.9 0.0
16/03:30am 24.7 19.5 5.5 29 9.9 E 22 30 12 16 1011.3 1009.8 0.0
16/03:00am 24.5 19.8 5.3 29 9.8 E 19 24 10 13 1011.3 1009.8 0.0
16/02:30am 24.9 20.0 5.2 28 10.1 E 20 22 11 12 1011.4 1009.9 0.0
16/02:00am 25.3 20.6 5.0 27 10.4 ESE 19 24 10 13 1011.7 1010.2 0.0
16/01:30am 26.0 21.1 5.0 26 10.8 ESE 20 24 11 13 1011.8 1010.3 0.0
16/01:00am 26.1 21.5 5.7 27 10.6 ESE 19 20 10 11 1011.9 1010.4 0.0
16/12:30am 26.2 22.5 6.3 28 10.5 ESE 15 19 8 10 1011.9 1010.4 0.0
16/12:00am 26.6 22.9 6.1 27 10.8 ESE 15 17 8 9 1011.8 1010.3 0.0
 
Date/Time
CDT
Temp
°C
App
Temp
°C
Dew
Point
°C
Rel
Hum
%
Delta-T
°C
Wind Press
QNH
hPa
Press
MSL
hPa
Rain since
9am
mm
Dir  Spd
km/h
Gust
km/h
Spd
kts
Gust
kts
15/11:30pm 27.2 23.4 6.0 26 11.2 SE 15 19 8 10 1011.8 1010.3 0.0
15/11:00pm 27.9 24.2 6.1 25 11.5 ESE 15 17 8 9 1011.6 1010.1 0.0
15/10:30pm 28.1 24.3 5.6 24 11.8 ESE 15 17 8 9 1011.4 1009.9 0.0
15/10:00pm 29.2 25.7 5.3 22 12.6 ESE 13 15 7 8 1011.2 1009.7 0.0
15/09:30pm 30.4 26.3 4.2 19 13.6 E 15 17 8 9 1011.0 1009.5 0.0
15/09:00pm 31.7 27.1 3.7 17 14.6 E 17 20 9 11 1011.0 1009.5 0.0

Other Formats:

Comma delimited format used in spreadsheet applications
http://www.bom.gov.au/fwo/IDS60801/IDS60801.95458.axf

JavaScript Object Notation format (JSON) in row-major order
http://www.bom.gov.au/fwo/IDS60801/IDS60801.95458.json